Time;durP1;ratioP1;P1;durP2;ratioP2;P2;SDS_P1;SDS_P2;PMS_P1;PMS_P2;Temp;Humidity;BMP_temperature;BMP_pressure;BME280_temperature;BME280_humidity;BME280_pressure;Samples;Min_cycle;Max_cycle;Signal;HPM_P1;HPM_P2
2023/10/10 00:00:54;;;;;;;5.17;3.80;;;19.90;67.00;;;;;;5067375;28;20462;-51
2023/10/10 00:03:27;;;;;;;5.20;3.63;;;19.90;67.00;;;;;;5066062;28;20419;-52
2023/10/10 00:05:57;;;;;;;4.57;3.93;;;19.90;67.10;;;;;;5064813;28;20466;-52
2023/10/10 00:08:33;;;;;;;4.67;3.97;;;19.90;67.10;;;;;;5065075;28;20515;-50
2023/10/10 00:11:08;;;;;;;4.37;3.90;;;19.90;67.00;;;;;;5067495;28;20564;-51
2023/10/10 00:13:42;;;;;;;4.40;3.63;;;19.90;67.00;;;;;;5067396;28;20442;-52
2023/10/10 00:16:11;;;;;;;3.97;3.37;;;19.90;67.00;;;;;;5064044;28;20466;-51
2023/10/10 00:18:43;;;;;;;4.00;3.60;;;19.90;67.00;;;;;;5065630;28;20427;-51
2023/10/10 00:21:20;;;;;;;5.33;3.80;;;19.90;66.90;;;;;;5064326;28;20560;-51
2023/10/10 00:23:49;;;;;;;4.53;4.00;;;19.90;67.00;;;;;;5067723;28;20453;-51
2023/10/10 00:26:20;;;;;;;4.57;4.10;;;19.90;67.00;;;;;;5067098;28;20573;-51
2023/10/10 00:28:54;;;;;;;5.60;3.80;;;19.90;66.90;;;;;;5066128;28;20510;-52
2023/10/10 00:31:23;;;;;;;4.40;3.33;;;19.90;67.00;;;;;;5062599;28;20470;-51
2023/10/10 00:33:53;;;;;;;4.57;3.60;;;19.90;66.80;;;;;;5067118;28;20466;-51
2023/10/10 00:36:31;;;;;;;4.50;3.93;;;19.80;66.80;;;;;;5064258;28;20851;-51
2023/10/10 00:39:06;;;;;;;3.97;3.43;;;19.80;66.80;;;;;;5066096;28;20430;-51
2023/10/10 00:41:44;;;;;;;7.17;3.77;;;19.90;66.90;;;;;;5065726;28;20469;-51
2023/10/10 00:44:15;;;;;;;5.17;3.80;;;19.80;66.70;;;;;;5066441;28;20442;-51
2023/10/10 00:46:47;;;;;;;5.57;4.27;;;19.90;66.90;;;;;;5065503;28;20545;-51
2023/10/10 00:49:17;;;;;;;5.10;4.30;;;19.80;66.80;;;;;;5064470;28;20847;-51
2023/10/10 00:51:47;;;;;;;4.40;4.00;;;19.80;66.80;;;;;;5063497;28;20470;-51
2023/10/10 00:54:26;;;;;;;5.23;3.87;;;19.80;68.10;;;;;;5065199;28;20861;-51
2023/10/10 00:56:57;;;;;;;3.70;3.30;;;19.80;66.80;;;;;;5065161;28;20454;-51
2023/10/10 00:59:29;;;;;;;4.93;4.40;;;19.80;66.80;;;;;;5065287;28;20805;-51
2023/10/10 01:01:57;;;;;;;4.03;3.63;;;19.80;66.80;;;;;;5064539;28;20684;-51
2023/10/10 01:04:40;;;;;;;5.03;3.53;;;19.80;66.70;;;;;;5066319;28;20531;-51
2023/10/10 01:07:08;;;;;;;4.03;3.20;;;19.80;66.70;;;;;;5060934;28;20438;-51
2023/10/10 01:09:44;;;;;;;4.27;3.87;;;19.80;66.80;;;;;;5064789;28;20446;-52
2023/10/10 01:12:13;;;;;;;5.83;4.00;;;19.80;66.70;;;;;;5065339;28;20432;-50
2023/10/10 01:14:41;;;;;;;4.63;4.17;;;19.80;66.80;;;;;;5064032;28;20458;-50
2023/10/10 01:17:12;;;;;;;4.37;3.97;;;19.80;66.80;;;;;;5063203;28;20828;-50
2023/10/10 01:19:47;;;;;;;4.77;3.67;;;19.80;66.80;;;;;;5063154;28;20464;-52
2023/10/10 01:22:36;;;;;;;4.90;3.20;;;19.80;66.80;;;;;;5062585;28;20537;-51
2023/10/10 01:25:29;;;;;;;4.20;3.80;;;19.80;66.70;;;;;;5062793;28;20496;-52
2023/10/10 01:27:57;;;;;;;4.60;3.90;;;19.80;66.80;;;;;;5065424;28;20434;-51
2023/10/10 01:33:07;;;;;;;4.27;3.20;;;19.80;66.70;;;;;;5064101;28;20434;-50
2023/10/10 01:35:42;;;;;;;4.57;3.50;;;19.80;66.70;;;;;;5064125;28;20667;-54
2023/10/10 01:38:35;;;;;;;6.13;4.10;;;19.80;66.70;;;;;;5059368;28;20473;-49
2023/10/10 01:41:04;;;;;;;4.53;3.60;;;19.70;66.60;;;;;;5065881;28;20963;-52
2023/10/10 01:43:33;;;;;;;5.00;3.60;;;19.80;66.60;;;;;;5065803;28;20963;-50
2023/10/10 01:46:15;;;;;;;4.30;3.90;;;19.80;66.60;;;;;;5061659;28;20458;-51
2023/10/10 01:48:44;;;;;;;4.50;3.90;;;19.70;66.50;;;;;;5062643;28;20461;-52
2023/10/10 01:51:15;;;;;;;4.33;3.83;;;19.80;66.70;;;;;;5060714;28;20466;-52
2023/10/10 01:53:44;;;;;;;4.13;3.73;;;19.80;66.60;;;;;;5064840;28;20465;-52
2023/10/10 01:56:13;;;;;;;4.50;3.73;;;19.70;66.60;;;;;;5065241;28;20472;-52
2023/10/10 01:58:42;;;;;;;5.53;4.40;;;19.70;66.50;;;;;;5061168;28;20519;-51
2023/10/10 02:01:13;;;;;;;4.57;3.70;;;19.80;66.70;;;;;;5059574;28;20480;-52
2023/10/10 02:03:42;;;;;;;4.40;3.57;;;19.70;66.60;;;;;;5062697;28;20545;-52
2023/10/10 02:06:14;;;;;;;4.00;3.60;;;19.80;66.60;;;;;;5061505;28;20474;-52
2023/10/10 02:08:44;;;;;;;4.50;4.10;;;19.70;66.50;;;;;;5061461;28;20457;-52
2023/10/10 02:11:13;;;;;;;6.10;3.70;;;19.70;66.40;;;;;;5062997;28;20995;-50
2023/10/10 02:13:44;;;;;;;4.77;4.00;;;19.70;66.50;;;;;;5064982;28;20459;-52
2023/10/10 02:16:15;;;;;;;4.40;3.93;;;19.70;66.60;;;;;;5059257;28;20492;-57
2023/10/10 02:18:51;;;;;;;4.10;3.70;;;19.70;66.60;;;;;;5064272;28;20511;-52
2023/10/10 02:21:32;;;;;;;4.30;3.90;;;19.70;66.50;;;;;;5060376;28;20477;-50
2023/10/10 02:24:19;;;;;;;4.90;3.70;;;19.70;66.50;;;;;;5064592;28;20458;-50
2023/10/10 02:26:51;;;;;;;3.90;3.50;;;19.70;66.50;;;;;;5063295;28;20470;-52
2023/10/10 02:29:33;;;;;;;5.47;4.20;;;19.70;66.50;;;;;;5063387;28;20991;-52
2023/10/10 02:32:09;;;;;;;4.13;3.70;;;19.70;66.50;;;;;;5058965;28;20481;-50
2023/10/10 02:34:38;;;;;;;5.10;4.60;;;19.70;66.40;;;;;;5062244;28;20457;-50
2023/10/10 02:37:14;;;;;;;3.90;3.53;;;19.70;66.40;;;;;;5062786;28;20448;-52
2023/10/10 02:39:56;;;;;;;4.73;4.00;;;19.70;66.40;;;;;;5061033;28;20476;-52
2023/10/10 02:42:25;;;;;;;4.60;3.67;;;19.70;66.40;;;;;;5064620;28;20438;-52
2023/10/10 02:44:57;;;;;;;3.87;3.33;;;19.70;66.40;;;;;;5062509;28;20482;-52
2023/10/10 02:47:32;;;;;;;3.73;3.43;;;19.70;67.70;;;;;;5060348;28;20554;-52
2023/10/10 02:50:39;;;;;;;2.87;2.60;;;19.70;66.40;;;;;;5064049;28;20462;-52
2023/10/10 02:53:00;;;;;;;3.73;3.40;;;19.70;66.40;;;;;;5059943;28;20529;-51
2023/10/10 02:55:34;;;;;;;3.80;3.50;;;19.70;66.30;;;;;;5064545;28;20935;-52
2023/10/10 02:58:08;;;;;;;4.50;3.57;;;19.70;66.40;;;;;;5062230;28;20451;-51
2023/10/10 03:00:37;;;;;;;4.03;3.60;;;19.70;66.40;;;;;;5060356;28;20846;-49
2023/10/10 03:03:11;;;;;;;4.83;3.63;;;19.60;66.30;;;;;;5064070;28;20943;-51
2023/10/10 03:05:40;;;;;;;4.00;3.60;;;19.60;66.30;;;;;;5062543;28;20486;-50
2023/10/10 03:08:16;;;;;;;4.20;3.70;;;19.60;66.30;;;;;;5060026;28;20453;-50
2023/10/10 03:10:53;;;;;;;3.53;3.20;;;19.60;66.30;;;;;;5061710;28;20473;-51
2023/10/10 03:13:31;;;;;;;5.27;3.30;;;19.60;66.30;;;;;;5061906;28;20434;-52
2023/10/10 03:16:41;;;;;;;4.00;3.50;;;19.60;66.40;;;;;;5060595;28;20881;-52
2023/10/10 03:19:25;;;;;;;4.30;3.20;;;19.60;66.30;;;;;;5063321;28;20450;-52
2023/10/10 03:22:27;;;;;;;6.03;4.50;;;19.60;66.30;;;;;;5061701;28;20511;-51
2023/10/10 03:25:04;;;;;;;3.93;3.40;;;19.60;66.30;;;;;;5067661;28;20465;-52
2023/10/10 03:27:53;;;;;;;5.17;3.83;;;19.60;66.30;;;;;;5065503;28;20521;-51
2023/10/10 03:30:34;;;;;;;4.63;3.27;;;19.60;66.20;;;;;;5065895;28;20552;-50
2023/10/10 03:33:16;;;;;;;3.50;3.20;;;19.60;66.30;;;;;;5064771;28;20446;-52
2023/10/10 03:35:59;;;;;;;5.40;3.90;;;19.60;66.30;;;;;;5063871;28;20453;-50
2023/10/10 03:38:45;;;;;;;4.10;3.50;;;19.60;66.30;;;;;;5065677;28;20438;-52
2023/10/10 05:23:48;;;;;;;4.63;3.43;;;19.30;66.50;;;;;;5066213;28;20442;-51
2023/10/10 05:26:18;;;;;;;3.83;3.20;;;19.30;66.60;;;;;;5065664;28;20458;-51
2023/10/10 05:28:48;;;;;;;4.20;3.57;;;19.30;66.40;;;;;;5065259;28;20466;-51
2023/10/10 05:31:19;;;;;;;3.70;3.10;;;19.30;66.40;;;;;;5060953;28;20914;-51
2023/10/10 05:33:48;;;;;;;3.47;3.17;;;19.30;66.60;;;;;;5065404;28;20823;-51
2023/10/10 05:36:18;;;;;;;4.07;3.67;;;19.30;66.50;;;;;;5061531;28;21126;-51
2023/10/10 05:38:50;;;;;;;4.27;3.77;;;19.30;66.50;;;;;;5063746;28;20469;-51
2023/10/10 05:41:22;;;;;;;4.70;3.87;;;19.30;66.60;;;;;;5065467;28;20908;-51
2023/10/10 05:43:51;;;;;;;4.27;3.23;;;19.30;66.60;;;;;;5064054;28;20492;-51
2023/10/10 05:46:19;;;;;;;5.23;4.10;;;19.30;66.60;;;;;;5063353;28;20466;-51
2023/10/10 05:48:47;;;;;;;4.17;3.10;;;19.30;66.60;;;;;;5064326;28;20442;-51
2023/10/10 05:51:15;;;;;;;3.20;2.90;;;19.30;66.70;;;;;;5062303;28;20478;-51
2023/10/10 05:53:46;;;;;;;4.27;3.87;;;19.30;66.70;;;;;;5064950;28;20458;-52
2023/10/10 05:56:17;;;;;;;3.40;3.10;;;19.30;66.70;;;;;;5063596;28;20515;-51
2023/10/10 05:58:47;;;;;;;3.40;3.10;;;19.30;66.70;;;;;;5063478;28;20499;-51
2023/10/10 06:01:16;;;;;;;3.20;2.87;;;19.30;66.70;;;;;;5061667;28;20470;-52
2023/10/10 06:03:45;;;;;;;3.80;3.30;;;19.30;66.70;;;;;;5065285;28;20536;-51
2023/10/10 06:06:18;;;;;;;3.70;2.67;;;19.30;66.70;;;;;;5062143;28;20490;-52
2023/10/10 06:08:46;;;;;;;4.33;3.70;;;19.30;66.70;;;;;;5063378;28;20812;-51
2023/10/10 06:11:16;;;;;;;3.20;2.73;;;19.30;66.60;;;;;;5064296;28;20556;-51
2023/10/10 06:13:44;;;;;;;5.43;4.33;;;19.30;66.60;;;;;;5065462;28;20462;-51
2023/10/10 06:16:14;;;;;;;3.83;3.43;;;19.30;66.50;;;;;;5061883;28;20556;-52
2023/10/10 06:18:47;;;;;;;4.50;3.20;;;19.20;66.60;;;;;;5061954;28;20446;-51
2023/10/10 06:21:15;;;;;;;5.07;4.23;;;19.20;66.40;;;;;;5060501;28;21057;-51
2023/10/10 06:23:44;;;;;;;5.17;3.70;;;19.20;66.50;;;;;;5061821;28;20787;-51
2023/10/10 06:26:14;;;;;;;4.23;3.83;;;19.20;66.70;;;;;;5063321;28;20474;-52
2023/10/10 06:28:47;;;;;;;4.13;3.73;;;19.20;66.50;;;;;;5063923;28;20434;-51
2023/10/10 06:31:19;;;;;;;3.30;2.90;;;19.20;66.50;;;;;;5061773;28;20501;-52
2023/10/10 06:33:50;;;;;;;3.40;3.07;;;19.20;66.70;;;;;;5063386;28;20923;-54
2023/10/10 06:36:32;;;;;;;3.60;3.17;;;19.20;66.80;;;;;;5061735;28;20490;-52
2023/10/10 06:41:48;;;;;;;4.10;3.30;;;19.20;66.70;;;;;;5059723;28;20511;-52
2023/10/10 06:44:31;;;;;;;4.40;3.33;;;19.20;66.80;;;;;;5065006;28;20733;-52
2023/10/10 06:47:08;;;;;;;3.90;3.40;;;19.20;66.80;;;;;;5062511;28;20832;-50
2023/10/10 06:52:36;;;;;;;3.50;2.93;;;19.20;66.90;;;;;;5022282;28;20468;-49
2023/10/10 06:55:10;;;;;;;4.73;3.20;;;19.20;66.70;;;;;;5065352;28;20560;-50
2023/10/10 06:57:44;;;;;;;3.10;2.87;;;19.20;66.80;;;;;;5064598;28;20421;-50
2023/10/10 07:00:29;;;;;;;3.73;3.33;;;19.20;66.80;;;;;;5065865;28;20459;-50
2023/10/10 07:02:58;;;;;;;3.87;3.43;;;19.20;66.90;;;;;;5066807;28;20496;-50
2023/10/10 07:05:33;;;;;;;3.30;3.00;;;19.20;67.00;;;;;;5067699;28;20903;-52
2023/10/10 07:08:13;;;;;;;3.80;2.90;;;19.20;66.90;;;;;;5064909;28;20449;-52
2023/10/10 07:10:43;;;;;;;4.27;3.40;;;19.20;67.00;;;;;;5063022;28;20503;-52
2023/10/10 07:13:13;;;;;;;3.33;2.80;;;19.10;66.80;;;;;;5066549;28;20461;-51
2023/10/10 07:15:43;;;;;;;3.50;3.00;;;19.20;67.00;;;;;;5063298;28;20481;-52
2023/10/10 07:18:15;;;;;;;10.10;3.50;;;19.10;67.00;;;;;;5066342;28;20450;-51
2023/10/10 07:23:38;;;;;;;9.50;5.53;;;19.10;67.00;;;;;;5063953;28;20910;-51
2023/10/10 07:26:18;;;;;;;8.00;5.03;;;19.00;67.80;;;;;;5067595;28;20231;-51
2023/10/10 07:28:52;;;;;;;7.90;4.40;;;18.90;67.80;;;;;;5066257;28;20445;-51
2023/10/10 07:31:22;;;;;;;5.50;4.30;;;18.90;67.90;;;;;;5064804;28;20469;-51
2023/10/10 07:34:03;;;;;;;6.97;4.47;;;19.00;67.90;;;;;;5066286;28;20455;-52
2023/10/10 07:36:32;;;;;;;7.07;4.33;;;19.00;67.80;;;;;;5063834;28;20482;-52
2023/10/10 07:41:48;;;;;;;5.27;3.93;;;19.00;67.60;;;;;;5061386;28;20830;-52
2023/10/10 07:44:22;;;;;;;5.00;4.10;;;19.00;67.60;;;;;;5063606;28;20481;-50
2023/10/10 07:49:33;;;;;;;5.90;4.10;;;19.10;67.80;;;;;;5064232;28;20470;-52
2023/10/10 07:52:02;;;;;;;5.40;4.40;;;19.10;67.70;;;;;;5062670;28;20565;-50
2023/10/10 07:54:38;;;;;;;5.93;3.83;;;19.10;67.70;;;;;;5064696;28;20457;-50
2023/10/10 07:57:17;;;;;;;4.63;3.00;;;19.10;67.60;;;;;;5064643;28;20931;-52
2023/10/10 07:59:47;;;;;;;6.13;3.30;;;19.10;67.60;;;;;;5060355;28;20565;-52
2023/10/10 08:02:25;;;;;;;4.33;3.47;;;19.10;67.70;;;;;;5065095;28;20458;-50
2023/10/10 08:04:54;;;;;;;4.03;3.27;;;19.10;67.70;;;;;;5064283;28;20473;-52
2023/10/10 08:07:23;;;;;;;4.00;3.43;;;19.10;67.60;;;;;;5061913;28;20528;-52
2023/10/10 08:10:12;;;;;;;4.40;3.53;;;19.10;67.50;;;;;;5066633;28;20473;-51
2023/10/10 08:12:41;;;;;;;3.93;3.40;;;19.10;67.60;;;;;;5067569;28;20753;-50
2023/10/10 08:15:19;;;;;;;3.50;3.17;;;19.10;67.50;;;;;;5064484;28;20904;-50
2023/10/10 08:17:52;;;;;;;4.37;3.20;;;19.10;67.40;;;;;;5065981;28;20525;-50
2023/10/10 08:21:08;;;;;;;3.10;2.70;;;19.10;67.50;;;;;;5064771;28;20543;-50
2023/10/10 08:23:25;;;;;;;4.70;2.90;;;19.10;67.30;;;;;;5066532;28;20445;-50
2023/10/10 08:25:54;;;;;;;4.10;3.40;;;19.10;67.70;;;;;;5066263;28;20549;-52
2023/10/10 08:28:22;;;;;;;3.43;3.07;;;19.10;67.70;;;;;;5065292;28;20820;-52
2023/10/10 08:30:52;;;;;;;4.80;3.90;;;19.10;67.50;;;;;;5064944;28;20470;-50
2023/10/10 08:33:21;;;;;;;3.27;2.80;;;19.10;67.50;;;;;;5065341;28;20474;-50
2023/10/10 08:35:49;;;;;;;4.10;3.50;;;19.00;67.30;;;;;;5066791;28;20454;-52
2023/10/10 08:38:19;;;;;;;3.70;3.13;;;19.10;67.40;;;;;;5062413;28;20529;-52
2023/10/10 08:40:57;;;;;;;3.80;3.30;;;19.00;67.30;;;;;;5063269;28;20498;-52
2023/10/10 08:43:31;;;;;;;5.20;4.00;;;19.00;67.30;;;;;;5064307;28;20525;-52
2023/10/10 08:46:04;;;;;;;3.80;2.97;;;19.10;67.30;;;;;;5060020;28;20473;-51
2023/10/10 08:48:33;;;;;;;3.87;3.23;;;19.10;67.40;;;;;;5063608;28;20470;-52
2023/10/10 08:51:04;;;;;;;4.23;2.80;;;19.00;67.30;;;;;;5060490;28;20506;-51
2023/10/10 08:53:38;;;;;;;3.63;3.33;;;19.00;67.30;;;;;;5065025;28;20462;-50
2023/10/10 08:56:07;;;;;;;4.23;3.07;;;19.00;67.20;;;;;;5063424;28;20943;-50
2023/10/10 08:58:36;;;;;;;2.90;2.43;;;19.10;67.30;;;;;;5062987;28;20445;-51
2023/10/10 09:01:08;;;;;;;4.40;3.30;;;19.00;67.20;;;;;;5060172;28;20477;-51
2023/10/10 09:03:41;;;;;;;4.60;3.67;;;19.10;67.30;;;;;;5064330;28;20536;-51
2023/10/10 09:06:17;;;;;;;3.23;2.77;;;19.00;67.10;;;;;;5060997;28;21037;-51
2023/10/10 09:08:49;;;;;;;4.13;3.73;;;19.00;67.20;;;;;;5065558;28;20787;-51
2023/10/10 09:11:20;;;;;;;4.90;2.80;;;19.00;67.20;;;;;;5065161;28;20837;-54
2023/10/10 09:13:51;;;;;;;4.03;2.90;;;19.10;67.30;;;;;;5062344;28;20496;-51
2023/10/10 09:16:41;;;;;;;4.70;3.17;;;19.10;67.10;;;;;;5061812;28;20478;-52
2023/10/10 09:19:10;;;;;;;4.50;3.37;;;19.10;67.20;;;;;;5064174;28;20438;-51
2023/10/10 09:21:50;;;;;;;4.50;3.37;;;19.00;67.10;;;;;;5058677;28;20585;-51
2023/10/10 09:24:29;;;;;;;4.57;3.03;;;19.10;67.20;;;;;;5066065;28;20996;-51
2023/10/10 09:26:59;;;;;;;3.93;3.20;;;19.00;67.10;;;;;;5062085;28;20937;-51
2023/10/10 09:29:34;;;;;;;3.30;2.73;;;19.00;67.20;;;;;;5063444;28;20525;-51
2023/10/10 09:32:05;;;;;;;7.70;3.43;;;19.00;67.20;;;;;;5065353;28;20466;-51
2023/10/10 09:34:40;;;;;;;3.90;2.70;;;19.00;67.30;;;;;;5064143;28;21042;-51
2023/10/10 09:37:13;;;;;;;4.07;3.13;;;19.00;67.20;;;;;;5058779;28;20982;-51
2023/10/10 09:39:43;;;;;;;4.33;3.70;;;19.00;67.30;;;;;;5064178;28;20426;-51
2023/10/10 09:42:29;;;;;;;4.00;3.23;;;19.00;67.30;;;;;;5064604;28;20437;-51
2023/10/10 09:47:55;;;;;;;3.40;3.00;;;19.00;67.30;;;;;;5056745;28;20729;-51
2023/10/10 09:50:45;;;;;;;4.00;3.23;;;19.00;67.40;;;;;;5065100;28;20484;-51
2023/10/10 09:53:21;;;;;;;4.10;2.83;;;19.00;67.30;;;;;;5061667;28;20466;-50
2023/10/10 09:55:53;;;;;;;3.70;2.70;;;19.00;67.30;;;;;;5064956;28;21006;-51
2023/10/10 09:58:27;;;;;;;3.20;2.60;;;19.00;67.30;;;;;;5064854;28;20760;-51
2023/10/10 10:01:04;;;;;;;4.37;3.50;;;19.00;67.30;;;;;;5062277;28;20861;-51
2023/10/10 10:03:42;;;;;;;4.47;2.80;;;19.00;67.30;;;;;;5065219;28;20850;-52
2023/10/10 10:09:46;;;;;;;4.93;3.33;;;19.00;67.30;;;;;;5064750;28;20445;-52
2023/10/10 10:12:42;;;;;;;3.17;2.77;;;19.00;67.30;;;;;;5061666;28;20569;-51
2023/10/10 10:15:19;;;;;;;3.03;2.33;;;19.00;67.30;;;;;;5063576;28;20477;-51
2023/10/10 10:17:57;;;;;;;3.57;3.17;;;19.00;67.30;;;;;;5058908;28;20482;-51
2023/10/10 10:20:46;;;;;;;4.17;3.47;;;19.00;67.30;;;;;;5065081;28;20555;-51
2023/10/10 10:23:25;;;;;;;4.20;3.00;;;19.00;67.40;;;;;;5061582;28;20438;-51
2023/10/10 10:26:04;;;;;;;3.00;2.70;;;19.00;67.30;;;;;;5063738;28;20484;-51
2023/10/10 10:28:35;;;;;;;3.53;2.90;;;19.00;67.30;;;;;;5064910;28;20446;-51
2023/10/10 10:31:07;;;;;;;4.60;3.70;;;19.00;67.30;;;;;;5062875;28;20491;-51
2023/10/10 10:33:52;;;;;;;2.90;2.30;;;19.00;67.40;;;;;;5062972;28;20480;-51
2023/10/10 10:36:27;;;;;;;4.73;3.03;;;19.00;67.30;;;;;;5059187;28;20474;-51
2023/10/10 10:41:43;;;;;;;3.00;2.73;;;19.00;67.40;;;;;;5062415;28;20813;-51
2023/10/10 10:44:23;;;;;;;4.70;2.77;;;19.00;67.30;;;;;;5062732;28;20958;-51
2023/10/10 10:46:56;;;;;;;3.30;2.87;;;19.00;67.30;;;;;;5060325;28;20466;-51
2023/10/10 10:49:28;;;;;;;3.60;2.83;;;19.00;67.30;;;;;;5063660;28;20445;-51
2023/10/10 10:52:17;;;;;;;3.57;3.10;;;19.00;67.30;;;;;;5061877;28;20815;-51
2023/10/10 10:55:07;;;;;;;2.90;2.60;;;19.00;67.30;;;;;;5061362;28;20446;-51
2023/10/10 10:57:40;;;;;;;4.10;2.97;;;19.00;67.20;;;;;;5064109;28;20499;-51
2023/10/10 11:00:29;;;;;;;4.10;2.87;;;19.00;67.30;;;;;;5061916;28;20465;-51
2023/10/10 11:02:59;;;;;;;3.20;2.83;;;19.00;67.30;;;;;;5061387;28;20450;-51
2023/10/10 11:05:30;;;;;;;3.40;2.50;;;19.00;67.30;;;;;;5064857;28;20462;-51
2023/10/10 11:08:10;;;;;;;4.20;2.90;;;19.00;67.30;;;;;;5060269;28;20446;-52
2023/10/10 11:10:46;;;;;;;3.50;2.50;;;19.00;67.10;;;;;;5062328;28;20473;-50
2023/10/10 11:13:14;;;;;;;2.73;2.50;;;19.00;67.20;;;;;;5060081;28;20826;-51
2023/10/10 11:15:43;;;;;;;3.30;2.63;;;19.00;67.20;;;;;;5058899;28;20465;-50
2023/10/10 11:18:12;;;;;;;3.83;3.00;;;19.00;67.30;;;;;;5053499;28;20450;-51
2023/10/10 11:23:41;;;;;;;4.93;3.57;;;19.30;63.10;;;;;;5061509;28;20450;-49
2023/10/10 11:26:12;;;;;;;5.40;3.40;;;19.30;63.20;;;;;;5062352;28;20977;-50
2023/10/10 11:28:47;;;;;;;3.87;3.40;;;19.30;63.10;;;;;;5063683;28;20504;-50
2023/10/10 11:31:23;;;;;;;4.70;3.30;;;19.30;63.60;;;;;;5058961;28;20481;-51
2023/10/10 11:34:09;;;;;;;6.37;3.90;;;19.20;63.70;;;;;;5061717;28;20469;-51
2023/10/10 11:36:40;;;;;;;6.00;4.10;;;19.20;64.50;;;;;;5060352;28;21017;-53
2023/10/10 11:39:33;;;;;;;4.37;3.70;;;19.20;63.10;;;;;;5062561;28;20434;-50
2023/10/10 11:42:04;;;;;;;4.47;3.63;;;19.20;63.20;;;;;;5057816;28;20469;-50
2023/10/10 11:44:33;;;;;;;6.13;3.23;;;19.20;63.60;;;;;;5057245;28;20487;-50
2023/10/10 11:47:07;;;;;;;4.53;3.43;;;19.20;63.90;;;;;;5054840;28;20450;-50
2023/10/10 11:49:35;;;;;;;4.33;3.53;;;19.20;64.10;;;;;;5057732;28;20457;-52
2023/10/10 11:52:03;;;;;;;4.00;3.60;;;19.20;64.00;;;;;;5061203;28;20438;-50
2023/10/10 11:54:33;;;;;;;5.00;3.80;;;19.20;64.10;;;;;;5066085;28;20473;-52
2023/10/10 11:57:03;;;;;;;3.70;3.10;;;19.20;64.20;;;;;;5065065;28;20434;-52
2023/10/10 11:59:32;;;;;;;4.30;2.97;;;19.20;64.40;;;;;;5064278;28;20500;-52
2023/10/10 12:02:13;;;;;;;4.67;3.37;;;19.20;64.30;;;;;;5057669;28;20442;-52
2023/10/10 12:04:44;;;;;;;3.50;3.10;;;19.20;64.30;;;;;;5066985;28;20480;-52
2023/10/10 12:07:14;;;;;;;5.60;3.63;;;19.30;64.40;;;;;;5059345;28;20466;-52
2023/10/10 12:09:48;;;;;;;3.80;3.40;;;19.30;64.40;;;;;;5060965;28;20450;-52
2023/10/10 12:12:17;;;;;;;3.80;3.07;;;19.30;64.40;;;;;;5063668;28;20716;-50
2023/10/10 12:14:50;;;;;;;6.17;4.00;;;19.30;64.40;;;;;;5058724;28;20889;-50
2023/10/10 12:17:20;;;;;;;4.20;3.70;;;19.30;64.40;;;;;;5059759;28;20481;-51
2023/10/10 12:19:48;;;;;;;4.10;3.70;;;19.30;64.40;;;;;;5062490;28;20943;-50
2023/10/10 12:22:17;;;;;;;5.27;3.80;;;19.30;64.30;;;;;;5064573;28;20724;-52
2023/10/10 12:24:47;;;;;;;4.83;3.30;;;19.30;64.30;;;;;;5066081;28;20462;-51
2023/10/10 12:27:15;;;;;;;4.07;3.30;;;19.30;64.30;;;;;;5066376;28;20426;-52
2023/10/10 12:29:47;;;;;;;4.67;3.90;;;19.30;64.40;;;;;;5065193;28;20429;-50
2023/10/10 12:32:18;;;;;;;4.73;3.37;;;19.40;64.30;;;;;;5062020;28;20521;-52
2023/10/10 12:34:47;;;;;;;4.00;3.03;;;19.40;64.30;;;;;;5066678;28;20461;-52
2023/10/10 12:37:16;;;;;;;4.53;3.40;;;19.40;63.90;;;;;;5060641;28;20448;-51
2023/10/10 12:39:51;;;;;;;6.90;3.63;;;19.40;64.20;;;;;;5062517;28;20449;-52
2023/10/10 12:42:19;;;;;;;4.03;3.20;;;19.40;64.20;;;;;;5061828;28;20434;-51
2023/10/10 12:44:48;;;;;;;4.80;3.43;;;19.40;64.20;;;;;;5061658;28;20551;-50
2023/10/10 12:47:21;;;;;;;4.17;3.20;;;19.40;64.20;;;;;;5064361;28;20473;-51
2023/10/10 12:49:50;;;;;;;4.20;2.90;;;19.40;64.30;;;;;;5065906;28;20438;-51
2023/10/10 12:52:18;;;;;;;3.83;3.37;;;19.40;64.20;;;;;;5052305;28;20449;-51
2023/10/10 12:54:57;;;;;;;4.30;3.50;;;19.40;64.40;;;;;;5055518;28;20626;-52
2023/10/10 12:57:32;;;;;;;3.97;3.17;;;19.40;64.30;;;;;;5050423;28;20447;-50
2023/10/10 13:00:23;;;;;;;5.17;3.23;;;19.40;64.20;;;;;;5053230;28;20978;-50
2023/10/10 13:02:49;;;;;;;4.87;3.73;;;19.40;64.20;;;;;;5056308;28;20453;-50
2023/10/10 13:05:18;;;;;;;3.90;2.87;;;19.40;64.00;;;;;;5056271;28;20565;-50
2023/10/10 13:07:46;;;;;;;3.33;2.93;;;19.40;64.10;;;;;;5050885;28;20545;-50
2023/10/10 13:10:15;;;;;;;3.63;3.10;;;19.40;63.90;;;;;;5052914;28;20478;-51
2023/10/10 13:12:46;;;;;;;5.00;3.57;;;19.50;64.10;;;;;;5054355;28;20442;-50
2023/10/10 13:15:18;;;;;;;4.60;3.97;;;19.40;64.10;;;;;;5050750;28;20583;-50
2023/10/10 13:17:53;;;;;;;4.03;3.10;;;19.40;63.90;;;;;;5054762;28;20453;-52
2023/10/10 13:20:22;;;;;;;5.50;3.53;;;19.50;64.20;;;;;;5054509;28;20545;-52
2023/10/10 13:22:51;;;;;;;3.87;3.30;;;19.40;64.20;;;;;;5054051;28;20458;-51
2023/10/10 13:25:21;;;;;;;4.40;2.93;;;19.50;64.10;;;;;;5055159;28;21030;-52
2023/10/10 13:27:52;;;;;;;3.63;3.07;;;19.40;64.20;;;;;;5055366;28;20482;-51
2023/10/10 13:30:21;;;;;;;3.93;3.37;;;19.50;64.10;;;;;;5051801;28;21428;-50
2023/10/10 13:32:49;;;;;;;4.80;3.40;;;19.50;64.30;;;;;;5058263;28;20888;-50
2023/10/10 13:35:19;;;;;;;3.80;3.00;;;19.50;63.90;;;;;;5064618;28;20740;-52
2023/10/10 13:37:48;;;;;;;5.20;3.33;;;19.50;64.30;;;;;;5059892;28;20537;-52
2023/10/10 13:40:22;;;;;;;4.17;3.10;;;19.50;64.40;;;;;;5059727;28;20483;-52
2023/10/10 13:42:52;;;;;;;4.73;4.00;;;19.50;64.40;;;;;;5064391;28;20438;-52
2023/10/10 13:45:26;;;;;;;4.67;3.10;;;19.50;64.40;;;;;;5059382;28;20493;-53
2023/10/10 13:47:55;;;;;;;3.90;3.20;;;19.50;64.40;;;;;;5061632;28;20438;-50
2023/10/10 13:50:40;;;;;;;3.60;3.20;;;19.50;64.20;;;;;;5063637;28;20481;-52
2023/10/10 13:53:12;;;;;;;3.23;2.60;;;19.50;64.40;;;;;;5058425;28;20454;-50
2023/10/10 13:55:42;;;;;;;4.70;3.27;;;19.50;64.40;;;;;;5059244;28;20473;-52
2023/10/10 13:58:13;;;;;;;3.70;3.30;;;19.50;64.50;;;;;;5056777;28;20454;-50
2023/10/10 14:00:52;;;;;;;4.90;3.20;;;19.50;64.40;;;;;;5056742;28;20983;-50
2023/10/10 14:03:28;;;;;;;4.50;3.30;;;19.50;64.30;;;;;;5061671;28;20450;-51
2023/10/10 14:06:08;;;;;;;4.37;3.10;;;19.50;64.60;;;;;;5059666;28;20994;-52
2023/10/10 14:08:36;;;;;;;4.00;3.60;;;19.50;64.60;;;;;;5058816;28;20470;-51
2023/10/10 14:11:05;;;;;;;3.73;3.27;;;19.50;64.60;;;;;;5056884;28;21023;-51
2023/10/10 14:13:35;;;;;;;4.20;3.50;;;19.50;64.80;;;;;;5062442;28;20473;-50
2023/10/10 14:16:03;;;;;;;3.47;3.17;;;19.50;64.70;;;;;;5059088;28;20471;-50
2023/10/10 14:18:42;;;;;;;4.40;3.53;;;19.50;64.70;;;;;;5063629;28;20522;-50
2023/10/10 14:21:12;;;;;;;4.23;2.87;;;19.50;64.70;;;;;;5060047;28;20473;-49
2023/10/10 14:23:41;;;;;;;4.13;3.43;;;19.50;64.80;;;;;;5062529;28;20551;-51
2023/10/10 14:26:13;;;;;;;3.80;3.07;;;19.50;64.70;;;;;;5059879;28;20548;-50
2023/10/10 14:28:50;;;;;;;6.03;3.67;;;19.50;64.60;;;;;;5063314;28;20507;-49
2023/10/10 14:31:21;;;;;;;4.63;3.53;;;19.50;64.80;;;;;;5056757;28;21252;-49
2023/10/10 14:33:49;;;;;;;4.13;2.40;;;19.50;64.80;;;;;;5060745;28;20492;-51
2023/10/10 14:36:18;;;;;;;8.90;3.57;;;19.50;64.70;;;;;;5053515;28;20482;-51
2023/10/10 14:38:50;;;;;;;4.90;3.07;;;19.50;62.20;;;;;;5058481;28;20944;-49
2023/10/10 14:41:20;;;;;;;4.27;3.27;;;19.60;62.60;;;;;;5059334;28;20566;-50
2023/10/10 14:43:51;;;;;;;5.30;3.10;;;19.60;63.50;;;;;;5059840;28;20464;-50
2023/10/10 14:46:22;;;;;;;12.43;4.40;;;19.60;63.50;;;;;;5052296;28;21029;-51
2023/10/10 14:48:51;;;;;;;7.43;3.70;;;19.70;62.60;;;;;;5060940;28;20229;-51
2023/10/10 14:51:20;;;;;;;8.30;4.03;;;19.70;62.50;;;;;;5056091;28;20485;-51
2023/10/10 14:53:52;;;;;;;4.77;3.10;;;19.70;62.70;;;;;;5064588;28;20644;-51
2023/10/10 14:56:33;;;;;;;6.53;3.97;;;19.70;63.10;;;;;;5060240;28;20474;-51
2023/10/10 14:59:05;;;;;;;4.90;3.13;;;19.70;63.50;;;;;;5061746;28;20476;-51
2023/10/10 15:01:36;;;;;;;4.60;3.10;;;19.60;63.50;;;;;;5061892;28;20462;-51
2023/10/10 15:04:06;;;;;;;5.60;3.63;;;19.60;63.50;;;;;;5061122;28;20497;-51
2023/10/10 15:06:35;;;;;;;11.70;3.67;;;19.60;63.50;;;;;;5058505;28;20481;-51
2023/10/10 15:09:04;;;;;;;7.30;4.00;;;19.60;63.60;;;;;;5061409;28;20502;-52
2023/10/10 15:11:32;;;;;;;5.30;3.20;;;19.60;63.60;;;;;;5058628;28;20497;-52
2023/10/10 15:14:06;;;;;;;7.10;4.63;;;19.50;63.40;;;;;;5063107;28;21565;-51
2023/10/10 15:16:35;;;;;;;8.67;4.03;;;19.50;63.40;;;;;;5061450;28;20477;-51
2023/10/10 15:19:06;;;;;;;4.20;3.10;;;19.60;63.50;;;;;;5061643;28;20450;-51
2023/10/10 15:21:34;;;;;;;3.97;3.00;;;19.50;63.40;;;;;;5064121;28;21083;-51
2023/10/10 15:24:03;;;;;;;5.20;2.97;;;19.50;63.50;;;;;;5068025;28;20963;-51
2023/10/10 15:26:34;;;;;;;3.93;3.43;;;19.50;63.40;;;;;;5066670;28;20473;-51
2023/10/10 15:29:03;;;;;;;3.80;3.20;;;19.50;63.40;;;;;;5062799;28;20805;-52